createdAt,value
2022-08-20T00:01:05.364Z,99.90
2022-08-20T00:03:35.839Z,99.90
2022-08-20T00:06:15.553Z,99.90
2022-08-20T00:08:43.467Z,99.90
2022-08-20T00:11:13.036Z,99.90
2022-08-20T00:13:47.936Z,99.90
2022-08-20T00:16:16.496Z,99.90
2022-08-20T00:18:44.342Z,99.90
2022-08-20T00:21:18.698Z,99.90
2022-08-20T00:23:49.254Z,99.90
2022-08-20T00:26:16.798Z,99.90
2022-08-20T00:28:43.449Z,99.90
2022-08-20T00:31:13.862Z,99.90
2022-08-20T00:33:40.876Z,99.90
2022-08-20T00:36:10.121Z,99.90
2022-08-20T00:38:38.808Z,99.90
2022-08-20T00:41:08.514Z,99.90
2022-08-20T00:43:42.630Z,99.90
2022-08-20T00:46:31.162Z,99.90
2022-08-20T00:48:59.545Z,99.90
2022-08-20T00:51:30.039Z,99.90
2022-08-20T00:54:02.399Z,99.90
2022-08-20T00:56:33.270Z,99.90
2022-08-20T00:59:00.928Z,99.90
2022-08-20T01:01:28.597Z,99.90
2022-08-20T01:03:56.522Z,99.90
2022-08-20T01:06:25.086Z,99.90
2022-08-20T01:08:52.233Z,99.90
2022-08-20T01:11:22.443Z,99.90
2022-08-20T01:13:50.712Z,99.90
2022-08-20T01:16:26.499Z,99.90
2022-08-20T01:18:57.481Z,99.90
2022-08-20T01:21:28.380Z,99.90
2022-08-20T01:24:15.308Z,99.90
2022-08-20T01:26:44.992Z,99.90
2022-08-20T01:29:18.220Z,99.90
2022-08-20T01:31:46.000Z,99.90
2022-08-20T01:34:16.530Z,99.90
2022-08-20T01:36:48.002Z,99.90
2022-08-20T01:39:19.674Z,99.90
2022-08-20T01:42:15.258Z,99.90
2022-08-20T01:44:44.564Z,99.90
2022-08-20T01:47:21.487Z,99.90
2022-08-20T01:49:51.739Z,99.90
2022-08-20T01:52:38.424Z,99.90
2022-08-20T01:55:06.150Z,99.90
2022-08-20T01:57:34.894Z,99.90
2022-08-20T02:00:09.303Z,99.90
2022-08-20T02:02:46.280Z,99.90
2022-08-20T02:05:13.058Z,99.90
2022-08-20T02:07:40.339Z,99.90
2022-08-20T02:10:10.133Z,99.90
2022-08-20T02:12:37.361Z,99.90
2022-08-20T02:15:05.125Z,99.90
2022-08-20T02:17:31.911Z,99.90
2022-08-20T02:20:02.734Z,99.90
2022-08-20T02:22:55.085Z,99.90
2022-08-20T02:25:24.474Z,99.90
2022-08-20T02:27:52.599Z,99.90
2022-08-20T02:30:27.896Z,99.90
2022-08-20T02:33:00.156Z,99.90
2022-08-20T02:35:27.773Z,99.90
2022-08-20T02:37:55.269Z,99.90
2022-08-20T02:40:30.394Z,99.90
2022-08-20T02:43:01.675Z,99.90
2022-08-20T02:45:29.813Z,99.90
2022-08-20T02:47:57.560Z,99.90
2022-08-20T02:50:25.765Z,99.90
2022-08-20T02:52:52.915Z,99.90
2022-08-20T02:55:27.517Z,99.90
2022-08-20T02:57:58.599Z,99.90
2022-08-20T03:00:27.144Z,99.90
2022-08-20T03:02:53.857Z,99.90
2022-08-20T03:05:20.579Z,99.90
2022-08-20T03:07:50.342Z,99.90
2022-08-20T03:10:17.497Z,99.90
2022-08-20T03:12:44.105Z,99.90
2022-08-20T03:15:17.535Z,99.90
2022-08-20T03:17:44.781Z,99.90
2022-08-20T03:20:12.544Z,99.90
2022-08-20T03:22:39.507Z,99.90
2022-08-20T03:25:07.311Z,99.90
2022-08-20T03:27:36.168Z,99.90
2022-08-20T03:30:05.861Z,99.90
2022-08-20T03:32:32.525Z,99.90
2022-08-20T03:34:59.169Z,99.90
2022-08-20T03:37:28.883Z,99.90
2022-08-20T03:39:55.582Z,99.90
2022-08-20T03:42:22.235Z,99.90
2022-08-20T03:44:49.209Z,99.90
2022-08-20T03:47:26.175Z,99.90
2022-08-20T03:49:57.380Z,99.90
2022-08-20T03:52:23.973Z,99.90
2022-08-20T03:54:50.654Z,99.90
2022-08-20T03:57:17.415Z,99.90
2022-08-20T03:59:44.666Z,99.90
2022-08-20T04:02:12.420Z,99.90
2022-08-20T04:04:40.733Z,99.90
2022-08-20T04:07:18.828Z,99.90
2022-08-20T04:09:45.498Z,99.90
2022-08-20T04:12:15.231Z,99.90
2022-08-20T04:14:41.825Z,99.90
2022-08-20T04:17:11.648Z,99.90
2022-08-20T04:19:39.064Z,99.90
2022-08-20T04:22:07.876Z,99.90
2022-08-20T04:24:35.545Z,99.90
2022-08-20T04:27:03.117Z,99.90
2022-08-20T04:29:32.675Z,99.90
2022-08-20T04:32:00.597Z,99.90
2022-08-20T04:34:29.744Z,99.90
2022-08-20T04:36:56.540Z,99.90
2022-08-20T04:39:23.805Z,99.90
2022-08-20T04:41:50.476Z,99.90
2022-08-20T04:44:17.144Z,99.90
2022-08-20T04:46:44.026Z,99.90
2022-08-20T04:49:10.986Z,99.90
2022-08-20T04:51:37.650Z,99.90
2022-08-20T04:54:04.579Z,99.90
2022-08-20T04:56:37.966Z,99.90
2022-08-20T04:59:05.692Z,99.90
2022-08-20T05:01:33.144Z,99.90
2022-08-20T05:04:00.235Z,99.90
2022-08-20T05:06:31.691Z,99.90
2022-08-20T05:08:59.818Z,99.90
2022-08-20T05:11:36.143Z,99.90
2022-08-20T05:14:09.384Z,99.90
2022-08-20T05:16:40.256Z,99.90
2022-08-20T05:19:09.794Z,99.90
2022-08-20T05:21:37.366Z,99.90
2022-08-20T05:24:05.170Z,99.90
2022-08-20T05:26:33.189Z,99.90
2022-08-20T05:28:59.800Z,99.90
2022-08-20T05:31:32.138Z,99.90
2022-08-20T05:34:12.258Z,99.90
2022-08-20T05:36:45.471Z,99.90
2022-08-20T05:39:14.468Z,99.90
2022-08-20T05:41:41.159Z,99.90
2022-08-20T05:44:13.145Z,99.90
2022-08-20T05:46:42.672Z,99.90
2022-08-20T05:49:16.137Z,99.90
2022-08-20T05:51:43.602Z,99.90
2022-08-20T05:54:10.304Z,99.90
2022-08-20T05:56:37.500Z,99.90
2022-08-20T05:59:08.897Z,99.90
2022-08-20T06:01:38.069Z,99.90
2022-08-20T06:04:24.341Z,99.90
2022-08-20T06:07:11.281Z,99.90
2022-08-20T06:09:37.965Z,99.90
2022-08-20T06:12:08.828Z,99.90
2022-08-20T06:14:38.553Z,99.90
2022-08-20T06:17:17.455Z,99.90
2022-08-20T06:19:46.946Z,99.90
2022-08-20T06:22:21.023Z,99.90
2022-08-20T06:24:53.201Z,99.90
2022-08-20T06:27:20.269Z,99.90
2022-08-20T06:29:47.572Z,99.90
2022-08-20T06:32:14.985Z,99.90
2022-08-20T06:34:50.585Z,99.90
2022-08-20T06:37:31.137Z,99.90
2022-08-20T06:40:08.543Z,99.90
2022-08-20T06:42:35.679Z,99.90
2022-08-20T06:45:05.516Z,99.90
2022-08-20T06:47:34.583Z,99.90
2022-08-20T06:50:01.202Z,99.90
2022-08-20T06:52:37.786Z,99.90
2022-08-20T06:55:17.293Z,99.90
2022-08-20T06:57:44.289Z,99.90
2022-08-20T07:00:14.902Z,99.90
2022-08-20T07:02:42.004Z,99.90
2022-08-20T07:05:10.387Z,99.90
2022-08-20T07:07:37.753Z,99.90
2022-08-20T07:10:11.385Z,99.90
2022-08-20T07:12:38.223Z,99.90
2022-08-20T07:15:07.404Z,99.90
2022-08-20T07:17:34.181Z,99.90
2022-08-20T07:20:06.816Z,99.90
2022-08-20T07:22:36.868Z,99.90
2022-08-20T07:25:09.284Z,99.90
2022-08-20T07:27:36.269Z,99.90
2022-08-20T07:30:25.442Z,99.90
2022-08-20T07:32:52.101Z,99.90
2022-08-20T07:35:20.208Z,99.90
2022-08-20T07:37:49.951Z,99.90
2022-08-20T07:40:23.858Z,99.90
2022-08-20T07:42:53.863Z,99.90
2022-08-20T07:45:20.776Z,99.90
2022-08-20T07:47:48.377Z,99.90
2022-08-20T07:50:19.463Z,99.90
2022-08-20T07:52:52.481Z,99.90
2022-08-20T07:55:21.102Z,99.90
2022-08-20T07:57:50.023Z,99.90
2022-08-20T08:00:19.396Z,99.90
2022-08-20T08:02:48.554Z,99.90
2022-08-20T08:05:16.087Z,99.90
2022-08-20T08:07:43.103Z,99.90
2022-08-20T08:10:18.255Z,99.90
2022-08-20T08:12:48.032Z,99.90
2022-08-20T08:15:18.952Z,99.90
2022-08-20T08:17:47.115Z,99.90
2022-08-20T08:20:14.952Z,99.90
2022-08-20T08:22:42.933Z,99.90
2022-08-20T08:25:16.022Z,99.90
2022-08-20T08:27:43.445Z,99.90
2022-08-20T08:30:46.228Z,99.90
2022-08-20T08:33:29.218Z,99.90
2022-08-20T08:36:04.428Z,99.90
2022-08-20T08:38:34.312Z,99.90
2022-08-20T08:41:36.032Z,99.90
2022-08-20T08:44:08.040Z,99.90
2022-08-20T08:46:45.800Z,99.90
2022-08-20T08:49:16.566Z,99.90
2022-08-20T08:51:50.088Z,99.90
2022-08-20T08:54:20.183Z,99.90
2022-08-20T08:56:50.691Z,99.90
2022-08-20T08:59:19.150Z,99.90
2022-08-20T09:01:58.199Z,99.90
2022-08-20T09:04:43.158Z,99.90
2022-08-20T09:07:14.045Z,99.90
2022-08-20T09:09:46.899Z,99.90
2022-08-20T09:12:23.969Z,99.90
2022-08-20T09:14:51.445Z,99.90
2022-08-20T09:17:19.866Z,99.90
2022-08-20T09:19:46.613Z,99.90
2022-08-20T09:22:16.408Z,99.90
2022-08-20T09:24:46.858Z,99.90
2022-08-20T09:27:13.618Z,99.90
2022-08-20T09:29:40.530Z,99.90
2022-08-20T09:32:13.855Z,99.90
2022-08-20T09:34:51.828Z,99.90
2022-08-20T09:37:19.269Z,99.90
2022-08-20T09:39:47.058Z,99.90
2022-08-20T09:42:17.577Z,99.90
2022-08-20T09:44:45.061Z,99.90
2022-08-20T09:47:12.080Z,99.90
2022-08-20T09:49:39.250Z,99.90
2022-08-20T09:52:09.249Z,99.90
2022-08-20T09:54:37.266Z,99.90
2022-08-20T09:57:07.342Z,99.90
2022-08-20T09:59:35.986Z,99.90
2022-08-20T10:02:04.788Z,99.90
2022-08-20T10:04:31.502Z,99.90
2022-08-20T10:06:58.098Z,99.90
2022-08-20T10:09:24.786Z,99.90
2022-08-20T10:12:02.962Z,99.90
2022-08-20T10:14:29.760Z,99.90
2022-08-20T10:16:59.912Z,99.90
2022-08-20T10:19:28.018Z,99.90
2022-08-20T10:21:54.989Z,99.90
2022-08-20T10:24:21.998Z,99.90
2022-08-20T10:26:49.371Z,99.90
2022-08-20T10:29:17.094Z,99.90
2022-08-20T10:31:43.813Z,99.90
2022-08-20T10:34:10.601Z,99.90
2022-08-20T10:36:37.667Z,99.90
2022-08-20T10:39:04.841Z,99.90
2022-08-20T10:41:31.505Z,99.90
2022-08-20T10:43:58.096Z,99.90
2022-08-20T10:46:24.980Z,99.90
2022-08-20T10:48:51.898Z,99.90
2022-08-20T10:51:18.531Z,99.90
2022-08-20T10:53:45.503Z,99.90
2022-08-20T10:56:15.491Z,99.90
2022-08-20T10:58:42.405Z,99.90
2022-08-20T11:01:11.318Z,99.90
2022-08-20T11:03:38.006Z,99.90
2022-08-20T11:06:05.921Z,99.90
2022-08-20T11:08:34.352Z,99.90
2022-08-20T11:11:03.225Z,99.90
2022-08-20T11:13:29.864Z,99.70
2022-08-20T11:16:01.035Z,99.90
2022-08-20T11:18:28.128Z,99.90
2022-08-20T11:20:55.506Z,99.90
2022-08-20T11:23:22.293Z,99.90
2022-08-20T11:25:49.060Z,99.70
2022-08-20T11:28:16.126Z,99.00
2022-08-20T11:30:42.907Z,99.70
2022-08-20T11:33:09.528Z,99.80
2022-08-20T11:35:49.498Z,99.90
2022-08-20T11:38:17.122Z,99.90
2022-08-20T11:40:43.722Z,99.90
2022-08-20T11:43:14.677Z,99.90
2022-08-20T11:45:42.898Z,99.90
2022-08-20T11:48:09.580Z,99.90
2022-08-20T11:50:36.263Z,99.90
2022-08-20T11:53:02.951Z,99.90
2022-08-20T11:55:30.544Z,99.90
2022-08-20T11:57:59.702Z,99.90
2022-08-20T12:00:32.655Z,99.90
2022-08-20T12:03:05.493Z,99.90
2022-08-20T12:05:36.176Z,98.60
2022-08-20T12:08:04.782Z,98.40
2022-08-20T12:10:31.877Z,97.10
2022-08-20T12:12:58.854Z,97.40
2022-08-20T12:15:27.432Z,96.60
2022-08-20T12:17:55.178Z,94.80
2022-08-20T12:20:22.774Z,94.20
2022-08-20T12:22:49.539Z,92.70
2022-08-20T12:25:16.340Z,93.70
2022-08-20T12:27:42.971Z,93.50
2022-08-20T12:30:18.158Z,92.10
2022-08-20T12:32:45.659Z,91.80
2022-08-20T12:35:13.571Z,92.70
2022-08-20T12:37:41.307Z,93.60
2022-08-20T12:40:15.569Z,93.10
2022-08-20T12:42:42.359Z,92.90
2022-08-20T12:45:09.696Z,92.10
2022-08-20T12:47:39.350Z,92.10
2022-08-20T12:50:12.154Z,91.30
2022-08-20T12:52:39.537Z,92.50
2022-08-20T12:55:08.724Z,88.90
2022-08-20T12:57:43.805Z,90.20
2022-08-20T13:00:24.315Z,90.50
2022-08-20T13:02:57.705Z,88.00
2022-08-20T13:05:25.499Z,83.70
2022-08-20T13:07:52.874Z,86.30
2022-08-20T13:10:25.976Z,83.40
2022-08-20T13:12:53.028Z,82.90
2022-08-20T13:15:21.306Z,77.80
2022-08-20T13:17:58.866Z,81.70
2022-08-20T13:20:27.069Z,81.10
2022-08-20T13:23:00.976Z,80.20
2022-08-20T13:25:30.736Z,81.70
2022-08-20T13:28:00.201Z,82.50
2022-08-20T13:30:30.005Z,84.60
2022-08-20T13:32:56.736Z,85.60
2022-08-20T13:35:23.527Z,86.80
2022-08-20T13:37:50.907Z,82.70
2022-08-20T13:40:18.005Z,79.90
2022-08-20T13:42:44.783Z,77.90
2022-08-20T13:45:11.715Z,75.90
2022-08-20T13:47:43.342Z,74.40
2022-08-20T13:50:19.944Z,71.60
2022-08-20T13:52:49.688Z,72.00
2022-08-20T13:55:20.258Z,74.30
2022-08-20T13:57:48.284Z,75.40
2022-08-20T14:00:19.416Z,70.80
2022-08-20T14:02:46.417Z,70.10
2022-08-20T14:05:18.974Z,71.70
2022-08-20T14:07:47.114Z,71.40
2022-08-20T14:10:26.343Z,69.00
2022-08-20T14:12:53.030Z,67.90
2022-08-20T14:15:20.009Z,64.00
2022-08-20T14:17:52.595Z,63.70
2022-08-20T14:20:22.085Z,63.50
2022-08-20T14:22:48.668Z,58.60
2022-08-20T14:25:17.264Z,57.80
2022-08-20T14:27:43.895Z,57.00
2022-08-20T14:30:16.596Z,56.40
2022-08-20T14:32:43.971Z,56.60
2022-08-20T14:35:11.665Z,57.60
2022-08-20T14:37:41.122Z,59.20
2022-08-20T14:40:12.139Z,58.50
2022-08-20T14:42:39.852Z,57.10
2022-08-20T14:45:08.383Z,56.70
2022-08-20T14:47:40.866Z,55.30
2022-08-20T14:50:12.302Z,54.10
2022-08-20T14:52:39.496Z,53.60
2022-08-20T14:55:09.343Z,52.70
2022-08-20T14:57:37.575Z,52.20
2022-08-20T15:00:08.153Z,52.40
2022-08-20T15:02:35.487Z,54.60
2022-08-20T15:05:03.358Z,55.10
2022-08-20T15:07:36.828Z,56.00
2022-08-20T15:10:07.792Z,55.20
2022-08-20T15:12:35.297Z,53.30
2022-08-20T15:15:14.135Z,53.20
2022-08-20T15:17:48.807Z,53.40
2022-08-20T15:20:20.126Z,52.60
2022-08-20T15:22:47.486Z,51.60
2022-08-20T15:25:16.275Z,52.20
2022-08-20T15:27:43.783Z,52.60
2022-08-20T15:30:17.369Z,54.40
2022-08-20T15:32:52.747Z,55.40
2022-08-20T15:35:25.305Z,56.50
2022-08-20T15:37:54.617Z,55.10
2022-08-20T15:40:27.791Z,56.10
2022-08-20T15:42:55.205Z,56.40
2022-08-20T15:45:22.393Z,56.70
2022-08-20T15:47:50.975Z,57.10
2022-08-20T15:50:46.450Z,58.10
2022-08-20T15:53:32.280Z,58.50
2022-08-20T15:56:21.143Z,58.30
2022-08-20T15:58:54.798Z,58.00
2022-08-20T16:01:27.387Z,58.50
2022-08-20T16:04:12.001Z,57.90
2022-08-20T16:06:40.033Z,58.00
2022-08-20T16:09:18.552Z,58.70
2022-08-20T16:12:07.393Z,58.60
2022-08-20T16:14:39.259Z,57.50
2022-08-20T16:17:30.762Z,56.30
2022-08-20T16:20:25.777Z,55.80
2022-08-20T16:23:03.851Z,55.60
2022-08-20T16:25:46.627Z,55.50
2022-08-20T16:28:32.095Z,55.60
2022-08-20T16:31:03.850Z,55.60
2022-08-20T16:33:38.470Z,56.40
2022-08-20T16:36:45.673Z,56.10
2022-08-20T16:39:25.532Z,55.80
2022-08-20T16:41:54.625Z,56.30
2022-08-20T16:44:39.215Z,56.30
2022-08-20T16:47:20.727Z,56.30
2022-08-20T16:50:08.490Z,57.00
2022-08-20T16:52:35.102Z,56.30
2022-08-20T16:55:01.701Z,56.80
2022-08-20T16:57:29.171Z,56.50
2022-08-20T17:00:01.510Z,56.30
2022-08-20T17:02:28.138Z,56.60
2022-08-20T17:05:00.027Z,56.50
2022-08-20T17:07:43.332Z,56.70
2022-08-20T17:10:23.984Z,56.80
2022-08-20T17:13:13.896Z,57.30
2022-08-20T17:15:43.496Z,57.50
2022-08-20T17:18:26.423Z,57.90
2022-08-20T17:20:53.960Z,57.90
2022-08-20T17:23:22.721Z,58.10
2022-08-20T17:25:59.876Z,57.90
2022-08-20T17:28:29.833Z,57.90
2022-08-20T17:30:58.552Z,58.10
2022-08-20T17:33:34.566Z,58.40
2022-08-20T17:36:03.998Z,58.40
2022-08-20T17:38:52.316Z,58.70
2022-08-20T17:41:26.409Z,59.10
2022-08-20T17:44:27.413Z,58.90
2022-08-20T17:46:54.433Z,59.00
2022-08-20T17:49:44.715Z,59.10
2022-08-20T17:52:28.300Z,59.00
2022-08-20T17:54:54.949Z,59.20
2022-08-20T17:57:30.229Z,58.80
2022-08-20T18:00:05.483Z,58.10
2022-08-20T18:02:34.131Z,57.80
2022-08-20T18:05:01.497Z,57.50
2022-08-20T18:07:39.315Z,57.80
2022-08-20T18:10:21.220Z,57.50
2022-08-20T18:13:12.960Z,57.70
2022-08-20T18:15:57.614Z,58.00
2022-08-20T18:18:56.286Z,58.30
2022-08-20T18:21:46.885Z,58.90
2022-08-20T18:24:20.549Z,59.90
2022-08-20T18:26:52.294Z,60.50
2022-08-20T18:29:27.378Z,61.50
2022-08-20T18:32:00.904Z,62.00
2022-08-20T18:34:33.457Z,62.40
2022-08-20T18:37:06.613Z,63.00
2022-08-20T18:39:37.320Z,63.60
2022-08-20T18:42:22.180Z,64.30
2022-08-20T18:44:51.882Z,64.90
2022-08-20T18:47:40.795Z,65.50
2022-08-20T18:50:16.410Z,66.40
2022-08-20T18:53:10.084Z,67.20
2022-08-20T18:55:46.226Z,68.30
2022-08-20T18:58:34.561Z,69.30
2022-08-20T19:01:04.507Z,71.20
2022-08-20T19:03:34.201Z,71.60
2022-08-20T19:06:23.774Z,72.60
2022-08-20T19:08:59.210Z,73.90
2022-08-20T19:11:26.848Z,75.30
2022-08-20T19:14:05.488Z,76.30
2022-08-20T19:16:55.132Z,77.60
2022-08-20T19:19:24.029Z,78.80
2022-08-20T19:21:51.815Z,80.20
2022-08-20T19:24:28.480Z,81.20
2022-08-20T19:26:58.486Z,82.00
2022-08-20T19:29:30.444Z,82.40
2022-08-20T19:31:59.505Z,83.10
2022-08-20T19:34:26.382Z,83.80
2022-08-20T19:37:10.105Z,85.30
2022-08-20T19:39:49.123Z,86.00
2022-08-20T19:42:20.238Z,86.80
2022-08-20T19:44:59.581Z,87.60
2022-08-20T19:47:30.224Z,88.90
2022-08-20T19:50:08.087Z,89.80
2022-08-20T19:52:42.217Z,90.40
2022-08-20T19:55:24.685Z,90.90
2022-08-20T19:57:54.422Z,91.40
2022-08-20T20:00:22.932Z,91.70
2022-08-20T20:02:49.608Z,91.80
2022-08-20T20:05:17.420Z,92.20
2022-08-20T20:07:49.865Z,92.80
2022-08-20T20:10:32.923Z,93.20
2022-08-20T20:13:11.713Z,93.60
2022-08-20T20:15:39.250Z,94.20
2022-08-20T20:18:11.015Z,94.50
2022-08-20T20:20:57.860Z,94.90
2022-08-20T20:23:41.609Z,95.30
2022-08-20T20:26:18.023Z,95.80
2022-08-20T20:28:48.149Z,96.20
2022-08-20T20:31:22.525Z,96.50
2022-08-20T20:33:54.205Z,96.80
2022-08-20T20:36:33.976Z,97.00
2022-08-20T20:39:06.034Z,97.30
2022-08-20T20:41:35.783Z,97.50
2022-08-20T20:44:16.756Z,97.60
2022-08-20T20:46:46.986Z,97.70
2022-08-20T20:49:30.282Z,97.90
2022-08-20T20:52:15.013Z,98.40
2022-08-20T20:54:45.214Z,97.90
2022-08-20T20:57:17.869Z,98.40
2022-08-20T20:59:48.680Z,98.60
2022-08-20T21:02:22.465Z,99.00
2022-08-20T21:04:52.425Z,99.20
2022-08-20T21:07:22.758Z,99.30
2022-08-20T21:09:51.897Z,99.30
2022-08-20T21:12:20.216Z,99.90
2022-08-20T21:14:46.963Z,99.90
2022-08-20T21:17:20.852Z,99.90
2022-08-20T21:19:49.182Z,99.90
2022-08-20T21:22:16.735Z,99.90
2022-08-20T21:24:43.839Z,99.90
2022-08-20T21:27:12.514Z,99.90
2022-08-20T21:29:39.721Z,99.90
2022-08-20T21:32:06.632Z,99.90
2022-08-20T21:34:33.291Z,99.90
2022-08-20T21:36:59.928Z,99.90
2022-08-20T21:39:27.198Z,99.90
2022-08-20T21:41:56.017Z,99.90
2022-08-20T21:44:29.709Z,99.90
2022-08-20T21:46:56.513Z,99.90
2022-08-20T21:49:24.508Z,99.90
2022-08-20T21:51:52.911Z,99.90
2022-08-20T21:54:20.051Z,99.90
2022-08-20T21:56:54.071Z,99.90
2022-08-20T21:59:22.950Z,99.90
2022-08-20T22:01:49.609Z,99.90
2022-08-20T22:04:16.254Z,99.90
2022-08-20T22:06:43.205Z,99.90
2022-08-20T22:09:09.980Z,99.90
2022-08-20T22:11:36.804Z,99.90
2022-08-20T22:14:08.073Z,99.90
2022-08-20T22:16:34.798Z,99.90
2022-08-20T22:19:01.892Z,99.90
2022-08-20T22:21:31.262Z,99.90
2022-08-20T22:24:00.347Z,99.90
2022-08-20T22:26:27.512Z,99.90
2022-08-20T22:28:54.573Z,99.90
2022-08-20T22:31:25.571Z,99.90
2022-08-20T22:33:52.325Z,99.90
2022-08-20T22:36:19.284Z,99.90
2022-08-20T22:38:47.520Z,99.90
2022-08-20T22:41:22.029Z,99.90
2022-08-20T22:43:55.758Z,99.90
2022-08-20T22:46:26.985Z,99.90
2022-08-20T22:48:54.175Z,99.90
2022-08-20T22:51:24.165Z,99.90
2022-08-20T22:53:50.940Z,99.90
2022-08-20T22:56:21.596Z,99.90
2022-08-20T22:58:50.214Z,99.90
2022-08-20T23:01:18.661Z,99.90
2022-08-20T23:03:45.718Z,99.90
2022-08-20T23:06:13.097Z,99.90
2022-08-20T23:08:40.612Z,99.90
2022-08-20T23:11:07.275Z,99.90
2022-08-20T23:13:34.108Z,99.90
2022-08-20T23:16:01.613Z,99.90
2022-08-20T23:18:28.274Z,99.90
2022-08-20T23:20:56.812Z,99.90
2022-08-20T23:23:25.118Z,99.90
2022-08-20T23:25:52.186Z,99.90
2022-08-20T23:28:21.024Z,99.90
2022-08-20T23:30:47.968Z,99.90
2022-08-20T23:33:14.605Z,99.90
2022-08-20T23:35:41.829Z,99.90
2022-08-20T23:38:09.427Z,99.90
2022-08-20T23:40:36.759Z,99.90
2022-08-20T23:43:04.366Z,99.90
2022-08-20T23:45:31.969Z,99.90
2022-08-20T23:47:58.607Z,99.90
2022-08-20T23:50:28.688Z,99.90
2022-08-20T23:52:56.539Z,99.90
2022-08-20T23:55:23.447Z,99.90
2022-08-20T23:57:51.143Z,99.90
